Last 24 Hours

Canyon Lodge - 8,343ft

5 Minute Data | America/Los_Angeles
as of 5/4/26 8:09 PM PDT
Date & Time Temp (°F) RH (%) Dew Pt (°F) Wet Bulb (°F) Wind Dir (°) Wind Spd (mph) Wind Gust (mph) Wind Gst Dir (°)
5/4/26 - 2005 35.4 35 10.3 28.0 NNE | 31 0.4 2.4 NNE | 16
5/4/26 - 2000 35.3 34 9.4 27.8 NNE | 17 0.1 2.3 ENE | 75
5/4/26 - 1955 35.3 34 9.9 27.9 NNE | 16 0.6 2.8 N | 0
5/4/26 - 1950 35.3 34 10.0 27.9 NNE | 12 3.0 6.1 NNE | 17
5/4/26 - 1945 35.2 36 10.8 28.0 NNW | 341 1.4 2.6 NNE | 26
5/4/26 - 1940 35.4 35 10.2 28.0 N | 357 0.5 2.3 NW | 321
5/4/26 - 1935 35.6 33 9.6 28.0 N | 1 1.4 5.2 N | 10
5/4/26 - 1930 35.8 33 9.2 28.0 NNE | 14 2.9 6.7 NNE | 15
5/4/26 - 1925 35.9 33 9.8 28.2 NE | 46 1.6 6.2 NNE | 14
5/4/26 - 1920 35.8 33 9.6 28.1 ENE | 61 0.5 2.3 N | 350
5/4/26 - 1915 35.5 33 9.2 27.9 NE | 54 2.3 5.5 NE | 37
5/4/26 - 1910 35.8 34 10.2 28.2 S | 172 3.2 13.7 SW | 215
5/4/26 - 1905 36.4 34 10.7 28.7 NNE | 12 1.4 8.8 N | 5
5/4/26 - 1900 36.1 35 11.0 28.6 NNE | 14 1.5 6.4 N | 7
5/4/26 - 1855 35.5 35 10.4 28.1 WSW | 250 4.1 17.9 W | 268
5/4/26 - 1850 35.1 35 9.9 27.7 S | 185 5.2 14.1 SSW | 206
5/4/26 - 1845 35.0 35 10.1 27.8 S | 190 7.5 23.9 SSE | 167
5/4/26 - 1840 35.1 35 10.1 27.8 SSW | 204 3.8 11.4 SSE | 154
5/4/26 - 1835 34.9 35 10.1 27.7 S | 190 3.8 11.5 SSE | 160
5/4/26 - 1830 35.3 35 10.3 28.0 SW | 214 2.2 10.7 S | 174
5/4/26 - 1825 34.8 35 10.0 27.6 S | 185 7.0 19.4 SSE | 161
5/4/26 - 1820 35.3 36 10.7 28.0 S | 173 5.5 13.3 SSE | 165
5/4/26 - 1815 35.3 35 10.6 28.0 S | 187 4.5 14.8 W | 265
5/4/26 - 1810 34.9 35 10.0 27.7 S | 186 5.7 19.7 SSE | 157
5/4/26 - 1805 34.6 35 9.7 27.4 S | 188 6.7 17.5 S | 170
5/4/26 - 1800 35.4 34 10.0 28.0 S | 173 5.3 12.5 S | 169
5/4/26 - 1755 35.8 35 10.5 28.3 SSW | 196 4.4 14.4 SSW | 193
5/4/26 - 1750 35.5 34 10.2 28.1 S | 176 5.2 13.8 S | 175
5/4/26 - 1745 36.5 35 11.3 28.9 S | 182 3.7 8.6 SSW | 200
5/4/26 - 1740 36.7 35 11.7 29.1 S | 186 1.9 9.8 S | 174
5/4/26 - 1735 36.7 36 12.0 29.1 SSW | 194 4.0 16.0 SSW | 199
5/4/26 - 1730 37.3 36 12.5 29.6 SSW | 198 4.2 16.1 S | 175
5/4/26 - 1725 37.4 35 12.4 29.7 SW | 214 6.2 17.3 SW | 224
5/4/26 - 1720 38.0 36 13.4 30.2 SW | 214 4.9 11.9 SSW | 209
5/4/26 - 1715 38.0 35 12.9 30.1 SSW | 194 6.3 13.7 SSE | 166
5/4/26 - 1710 39.6 35 14.1 31.4 S | 191 3.6 13.2 S | 188
5/4/26 - 1705 40.5 35 14.8 32.0 SW | 227 1.5 5.3 S | 186
5/4/26 - 1700 40.4 35 15.1 32.0 SW | 218 1.5 5.9 WNW | 298
5/4/26 - 1655 40.7 35 15.4 32.3 NNW | 344 0.6 3.9 N | 353
5/4/26 - 1650 39.8 35 14.1 31.4 NNW | 338 1.2 4.6 NW | 320
5/4/26 - 1645 39.0 35 13.4 30.9 NNW | 346 6.4 10.9 SE | 127
5/4/26 - 1640 39.8 34 13.5 31.3 NNE | 18 4.8 8.6 N | 0
5/4/26 - 1635 39.6 34 13.8 31.3 N | 11 2.1 4.9 NE | 44
5/4/26 - 1630 39.9 35 14.4 31.6 N | 355 1.9 7.0 NW | 313
5/4/26 - 1625 39.7 35 14.1 31.4 N | 0 3.2 5.5 NW | 326
5/4/26 - 1620 40.0 36 15.0 31.8 ESE | 111 2.0 4.5 E | 98
5/4/26 - 1615 40.3 36 15.5 32.1 NW | 304 0.8 4.6 NNE | 31
5/4/26 - 1610 39.9 36 14.9 31.6 N | 5 1.5 7.2 NW | 304
5/4/26 - 1605 39.9 36 14.9 31.7 WSW | 243 3.2 8.5 SW | 227
5/4/26 - 1600 39.8 36 15.0 31.6 SSW | 208 4.0 16.0 W | 264
5/4/26 - 1555 39.8 36 14.9 31.6 S | 188 3.4 10.7 SSW | 204
5/4/26 - 1550 39.9 35 14.8 31.6 SSE | 166 2.3 6.9 SSE | 156
5/4/26 - 1545 39.8 36 15.2 31.6 SSW | 200 4.5 12.4 SSW | 205
5/4/26 - 1540 40.1 37 15.7 32.0 S | 186 3.4 10.8 SE | 144
5/4/26 - 1535 40.2 36 15.6 32.0 S | 171 2.2 7.9 S | 173
5/4/26 - 1530 39.9 36 14.8 31.6 S | 186 3.3 13.8 S | 180
5/4/26 - 1525 39.9 35 14.4 31.6 SSE | 167 1.7 5.7 SE | 133
5/4/26 - 1520 39.6 35 14.4 31.4 SW | 235 3.1 11.5 S | 174
5/4/26 - 1515 39.8 35 14.3 31.5 S | 172 1.5 7.6 SSW | 208
5/4/26 - 1510 39.5 35 14.1 31.3 SSE | 147 2.8 10.8 S | 188
5/4/26 - 1505 39.6 35 14.4 31.4 NNE | 33 3.0 9.5 WSW | 243
5/4/26 - 1500 40.2 36 15.6 32.0 ESE | 107 2.2 6.7 W | 281
5/4/26 - 1455 39.6 36 15.1 31.6 S | 189 4.2 17.6 SSW | 202
5/4/26 - 1450 39.3 36 14.6 31.3 SSW | 207 6.8 18.4 WSW | 256
5/4/26 - 1445 39.8 37 15.4 31.7 SW | 230 4.0 12.3 S | 175
5/4/26 - 1440 40.7 36 16.1 32.4 SW | 219 2.6 7.1 WSW | 238
5/4/26 - 1435 40.0 37 15.6 31.9 WSW | 253 4.6 11.7 W | 267
5/4/26 - 1430 39.9 37 15.6 31.8 WSW | 244 5.6 14.3 SW | 230
5/4/26 - 1425 39.8 36 15.2 31.7 SW | 235 3.8 11.8 W | 269
5/4/26 - 1420 39.4 36 14.8 31.4 WSW | 246 4.6 12.4 SW | 227
5/4/26 - 1415 38.9 36 14.4 31.0 WSW | 245 1.8 7.3 SW | 227
5/4/26 - 1410 38.6 36 14.1 30.7 SW | 233 3.3 10.7 WSW | 250
5/4/26 - 1405 38.2 36 13.4 30.4 WSW | 238 2.4 7.9 WSW | 257
5/4/26 - 1400 37.8 35 12.8 30.0 SSW | 193 4.2 11.9 SSE | 168
5/4/26 - 1355 37.4 36 12.6 29.7 S | 178 5.2 11.6 S | 173
5/4/26 - 1350 37.0 35 11.9 29.4 S | 182 3.2 10.2 S | 172
5/4/26 - 1345 36.7 35 11.7 29.1 SE | 139 2.7 6.7 SSE | 166
5/4/26 - 1340 36.2 35 11.5 28.8 SSE | 155 2.9 6.5 SE | 129
5/4/26 - 1335 36.0 37 12.0 28.7 S | 183 1.5 4.5 SSW | 203
5/4/26 - 1330 35.9 36 11.8 28.6 S | 191 1.9 5.3 SSW | 201
5/4/26 - 1325 36.4 36 12.1 29.0 SSW | 192 0.4 3.5 S | 189
5/4/26 - 1320 35.9 37 12.1 28.6 S | 190 3.6 8.6 SSW | 198
5/4/26 - 1315 36.1 37 12.6 28.9 SSW | 211 2.3 7.8 SSW | 196
5/4/26 - 1310 36.0 37 12.4 28.8 SSW | 204 1.8 7.8 SSW | 199
5/4/26 - 1305 36.2 37 12.6 29.0 SSW | 199 2.8 9.7 SSW | 198
5/4/26 - 1300 36.1 37 12.3 28.8 SSW | 199 3.5 8.6 SSW | 196
5/4/26 - 1255 35.5 36 11.4 28.3 S | 191 5.9 11.8 S | 177
5/4/26 - 1250 35.5 36 11.3 28.3 SSW | 213 4.8 12.4 SSW | 206
5/4/26 - 1245 35.5 36 11.3 28.3 SSW | 208 4.5 11.9 SSW | 213
5/4/26 - 1240 35.5 36 11.4 28.3 SW | 214 5.7 12.1 SSW | 209
5/4/26 - 1235 36.1 36 11.7 28.7 SSW | 213 0.9 5.6 SW | 219
5/4/26 - 1230 36.2 36 12.1 28.9 S | 176 2.3 9.3 SSW | 211
5/4/26 - 1225 36.4 37 12.7 29.1 SSW | 210 6.2 12.9 S | 185
5/4/26 - 1220 36.6 37 12.6 29.2 SSW | 208 4.5 12.3 SSW | 192
5/4/26 - 1215 36.6 36 12.4 29.2 S | 176 4.2 10.5 S | 169
5/4/26 - 1210 37.1 36 12.7 29.5 SSW | 199 3.9 13.4 S | 182
5/4/26 - 1205 37.6 36 13.2 30.0 SSW | 210 3.9 9.8 SW | 224
5/4/26 - 1200 37.9 37 13.6 30.2 SSW | 194 5.4 10.8 S | 174
5/4/26 - 1155 37.4 36 12.7 29.7 SSE | 154 2.0 6.9 SSW | 205
5/4/26 - 1150 36.7 36 12.2 29.2 SE | 129 0.7 3.0 ESE | 114
5/4/26 - 1145 35.8 37 12.2 28.6 SSW | 192 0.1 2.1 S | 188
5/4/26 - 1140 34.9 37 11.4 27.9 WSW | 253 0.7 4.8 WSW | 248
5/4/26 - 1135 34.5 37 10.9 27.5 SW | 224 2.8 6.7 WSW | 246
5/4/26 - 1130 34.2 36 10.4 27.3 SW | 225 4.5 9.1 SW | 236
5/4/26 - 1125 35.2 37 11.3 28.0 SW | 232 4.6 11.4 SW | 231
5/4/26 - 1120 35.6 37 11.6 28.4 WSW | 242 1.7 5.2 SW | 236
5/4/26 - 1115 35.6 37 12.2 28.5 WSW | 241 3.0 7.0 SW | 227
5/4/26 - 1110 35.6 37 11.7 28.4 SW | 236 2.9 10.2 S | 181
5/4/26 - 1105 35.4 36 11.2 28.2 S | 189 4.5 8.7 SSW | 204
5/4/26 - 1100 35.5 36 11.3 28.3 SSW | 196 3.5 11.1 SSW | 199
5/4/26 - 1055 35.6 37 12.0 28.5 SW | 236 4.3 8.5 WSW | 254
5/4/26 - 1050 35.6 37 11.6 28.4 SW | 217 5.0 8.9 S | 179
5/4/26 - 1045 35.5 37 12.1 28.4 WNW | 288 4.0 8.9 NNW | 332
5/4/26 - 1040 36.1 37 12.4 28.9 NNW | 338 2.3 6.3 NW | 326
5/4/26 - 1035 37.8 37 13.8 30.2 NW | 324 3.8 9.1 NW | 317
5/4/26 - 1030 40.6 36 15.9 32.3 SE | 128 1.1 5.1 S | 179
5/4/26 - 1025 41.5 36 16.8 33.1 SE | 144 0.3 3.5 S | 189
5/4/26 - 1020 41.6 37 17.3 33.2 E | 89 0.4 3.5 E | 93
5/4/26 - 1015 42.0 38 18.0 33.6 NW | 307 0.3 1.6 WNW | 295
5/4/26 - 1010 41.2 37 17.2 33.0 SSW | 198 0.4 3.3 SSW | 199
5/4/26 - 1005 40.5 37 16.5 32.4 WNW | 291 1.3 4.1 W | 268
5/4/26 - 1000 40.3 37 16.2 32.2 NW | 324 2.2 8.1 NW | 315
5/4/26 - 0955 40.1 37 16.2 32.1 WNW | 301 3.5 10.6 NNW | 327
5/4/26 - 0950 40.1 37 15.8 32.0 NNW | 346 3.5 8.6 N | 350
5/4/26 - 0945 41.2 36 16.4 32.8 N | 10 1.5 5.2 N | 4
5/4/26 - 0940 41.2 38 17.2 32.9 WSW | 238 1.6 7.4 WSW | 258
5/4/26 - 0935 41.4 38 17.6 33.2 WSW | 251 1.3 6.4 SW | 215
5/4/26 - 0930 41.4 37 17.2 33.1 WSW | 248 2.4 6.3 NW | 310
5/4/26 - 0925 42.1 37 17.5 33.6 SW | 228 1.2 5.4 SW | 217
5/4/26 - 0920 42.1 37 17.4 33.5 SSW | 208 2.1 8.1 SW | 224
5/4/26 - 0915 42.1 37 18.0 33.7 S | 186 1.6 6.7 S | 184
5/4/26 - 0910 41.7 39 18.4 33.6 W | 267 1.9 8.2 W | 275
5/4/26 - 0905 41.4 38 18.0 33.3 SW | 222 2.7 5.7 SW | 229
5/4/26 - 0900 42.2 39 18.8 33.9 WSW | 239 1.6 6.2 SW | 221
5/4/26 - 0855 42.2 38 18.6 33.9 NW | 306 1.1 3.9 W | 268
5/4/26 - 0850 41.3 38 17.6 33.1 SW | 215 1.3 6.3 SSW | 210
5/4/26 - 0845 40.6 38 17.0 32.5 NNW | 342 4.4 8.0 NNW | 337
5/4/26 - 0840 41.6 38 17.8 33.4 NW | 321 4.0 8.3 NW | 324
5/4/26 - 0835 42.0 38 18.0 33.6 NW | 326 2.1 5.5 NW | 323
5/4/26 - 0830 40.7 38 17.1 32.6 NNW | 342 1.7 4.6 N | 0
5/4/26 - 0825 40.5 37 16.4 32.4 NNW | 348 3.9 8.4 N | 3
5/4/26 - 0820 40.7 37 16.6 32.5 N | 354 4.7 8.4 N | 10
5/4/26 - 0815 40.9 37 16.8 32.7 N | 354 2.9 7.7 NW | 321
5/4/26 - 0810 40.6 37 16.5 32.4 N | 352 3.5 8.4 N | 11
5/4/26 - 0805 40.8 38 17.0 32.7 NNW | 342 1.9 5.7 WNW | 291
5/4/26 - 0800 39.8 37 15.9 31.8 NNW | 344 3.2 7.5 WNW | 302
5/4/26 - 0755 40.0 38 16.2 32.0 NNW | 328 3.7 9.9 WNW | 294
5/4/26 - 0750 40.1 37 15.8 32.0 N | 2 2.3 8.6 NNW | 334
5/4/26 - 0745 40.1 37 16.0 32.1 NNE | 27 1.0 5.5 WNW | 294
5/4/26 - 0740 40.1 38 16.8 32.2 N | 357 0.8 4.7 N | 6
5/4/26 - 0735 39.4 38 15.9 31.6 N | 358 0.8 3.1 N | 5
5/4/26 - 0730 39.4 38 15.7 31.6 N | 3 1.1 4.9 N | 0
5/4/26 - 0725 39.5 38 16.2 31.7 NW | 324 0.7 2.7 NE | 34
5/4/26 - 0720 39.5 37 15.5 31.6 N | 5 0.9 4.2 NW | 317
5/4/26 - 0715 40.0 37 15.8 31.9 N | 3 0.4 4.6 NNW | 330
5/4/26 - 0710 40.2 38 16.5 32.2 NW | 312 0.2 2.4 NW | 311
5/4/26 - 0705 39.4 38 16.1 31.6 NW | 321 0.3 2.4 WNW | 296
5/4/26 - 0700 38.8 38 15.2 31.1 WSW | 258 0.4 2.4 SW | 236
5/4/26 - 0655 38.1 38 14.8 30.6 NNW | 346 1.5 3.4 NW | 324
5/4/26 - 0650 38.6 38 15.3 31.0 SW | 232 2.0 4.8 SW | 229
5/4/26 - 0645 37.3 38 14.0 29.9 WNW | 285 0.6 3.0 W | 262
5/4/26 - 0640 36.9 38 13.5 29.6 NW | 323 1.9 3.8 NW | 317
5/4/26 - 0635 37.0 37 13.3 29.6 SW | 220 0.5 3.9 SW | 230
5/4/26 - 0630 36.8 37 13.3 29.5 SW | 234 1.9 5.9 WSW | 242
5/4/26 - 0625 36.1 38 12.8 28.9 WSW | 254 1.8 5.5 WSW | 243
5/4/26 - 0620 35.5 38 12.4 28.5 WNW | 288 1.6 4.3 W | 273
5/4/26 - 0615 35.8 38 12.8 28.7 W | 276 0.3 3.2 W | 264
5/4/26 - 0610 35.4 38 12.5 28.4 W | 263 0.6 2.5 WSW | 256
5/4/26 - 0605 34.6 37 11.0 27.6 WNW | 288 0.0 1.6 W | 280
5/4/26 - 0600 34.7 38 11.4 27.8 S | 175 0.0 0.0 S | 175
5/4/26 - 0555 34.5 38 11.2 27.6 N | 0 0.0 0.0 SW | 219
5/4/26 - 0550 35.1 38 12.2 28.2 WNW | 288 0.2 2.4 WNW | 302
5/4/26 - 0545 34.9 38 12.0 28.0 W | 278 0.1 2.2 W | 281
5/4/26 - 0540 34.5 38 11.7 27.7 W | 279 0.9 3.0 W | 271
5/4/26 - 0535 34.2 38 11.4 27.5 WNW | 291 0.3 2.1 WNW | 299
5/4/26 - 0530 34.2 40 12.2 27.6 WNW | 297 0.9 2.6 NW | 308
5/4/26 - 0525 34.5 40 12.6 27.9 WNW | 286 0.3 2.3 W | 268
5/4/26 - 0520 34.0 39 11.6 27.4 WNW | 292 0.9 3.1 WNW | 283
5/4/26 - 0515 33.8 39 11.5 27.2 NW | 317 0.4 2.5 NW | 319
5/4/26 - 0510 34.2 40 12.2 27.6 WSW | 249 0.0 0.9 WSW | 254
5/4/26 - 0505 34.5 40 12.4 27.8 WNW | 297 0.3 2.1 W | 275
5/4/26 - 0500 34.5 39 12.3 27.8 WNW | 296 0.3 2.0 NW | 319
5/4/26 - 0455 34.5 40 12.5 27.8 N | 0 0.0 0.0 NNW | 335
5/4/26 - 0450 34.1 40 12.2 27.6 N | 0 0.0 0.0 SSW | 212
5/4/26 - 0445 34.0 39 11.7 27.4 SW | 220 0.0 0.4 WSW | 249
5/4/26 - 0440 34.1 39 11.7 27.5 NW | 304 0.1 1.2 NW | 308
5/4/26 - 0435 34.6 38 11.8 27.8 SSW | 203 0.1 0.9 WSW | 238
5/4/26 - 0430 34.2 37 10.8 27.4 W | 269 0.7 2.5 W | 278
5/4/26 - 0425 34.1 38 11.1 27.3 WNW | 291 0.6 2.0 WNW | 282
5/4/26 - 0420 34.2 39 11.7 27.5 SSW | 201 0.0 0.5 SSW | 201
5/4/26 - 0415 34.2 38 11.0 27.4 W | 264 0.5 2.7 W | 280
5/4/26 - 0410 34.0 36 10.1 27.1 WNW | 285 1.4 3.7 W | 281
5/4/26 - 0405 34.5 37 10.7 27.5 WNW | 287 1.0 3.4 W | 280
5/4/26 - 0400 34.9 37 11.4 27.9 W | 279 1.4 4.6 W | 278
5/4/26 - 0355 34.5 38 11.3 27.6 WNW | 286 1.4 4.7 W | 278
5/4/26 - 0350 34.7 38 11.8 27.9 W | 278 1.4 4.4 W | 275
5/4/26 - 0345 34.4 39 11.8 27.6 WNW | 301 1.4 3.3 NW | 310
5/4/26 - 0340 35.2 38 12.0 28.2 WSW | 249 1.2 4.1 SW | 236
5/4/26 - 0335 34.8 38 11.9 28.0 WSW | 257 1.3 3.7 W | 268
5/4/26 - 0330 34.5 38 11.6 27.7 W | 275 0.1 1.1 WSW | 246
5/4/26 - 0325 34.6 37 11.1 27.6 WSW | 251 0.5 2.1 WSW | 245
5/4/26 - 0320 34.6 37 11.1 27.6 W | 260 1.2 4.9 SW | 228
5/4/26 - 0315 34.5 37 10.9 27.5 W | 261 1.0 4.8 WSW | 258
5/4/26 - 0310 34.2 38 11.1 27.4 W | 277 0.4 2.2 W | 270
5/4/26 - 0305 34.4 38 11.4 27.6 W | 279 0.5 2.4 WNW | 294
5/4/26 - 0300 34.2 38 11.0 27.4 W | 266 0.3 2.0 W | 275
5/4/26 - 0255 33.9 37 10.6 27.1 WNW | 293 0.2 3.0 WNW | 286
5/4/26 - 0250 34.3 38 11.2 27.5 W | 259 0.2 2.0 WSW | 245
5/4/26 - 0245 34.0 37 10.5 27.2 SSW | 213 0.5 2.5 S | 190
5/4/26 - 0240 33.7 37 10.2 26.9 WSW | 245 0.2 1.3 W | 262
5/4/26 - 0235 33.3 37 9.8 26.6 S | 169 0.0 0.2 SSE | 167
5/4/26 - 0230 33.4 37 10.2 26.7 SSW | 200 0.0 1.0 SSW | 200
5/4/26 - 0225 33.8 37 10.3 27.0 WNW | 284 0.2 1.9 W | 275
5/4/26 - 0220 34.0 36 10.0 27.1 S | 190 0.6 3.4 SSW | 199
5/4/26 - 0215 34.2 37 10.8 27.4 W | 278 0.1 1.3 NW | 316
5/4/26 - 0210 34.1 37 10.5 27.2 N | 0 0.0 0.0 WNW | 291
5/4/26 - 0205 34.2 37 10.5 27.3 SSW | 211 0.1 1.2 S | 188
5/4/26 - 0200 34.5 36 10.3 27.4 SSW | 194 0.1 1.4 SSE | 166
5/4/26 - 0155 34.1 36 9.9 27.1 SW | 214 1.0 2.7 W | 267
5/4/26 - 0150 34.0 36 10.1 27.1 WSW | 258 0.2 2.8 WSW | 257
5/4/26 - 0145 33.9 36 9.4 26.9 WNW | 296 0.7 2.6 NW | 316
5/4/26 - 0140 34.4 35 9.5 27.2 SSW | 199 0.2 2.0 S | 182
5/4/26 - 0135 34.6 35 9.9 27.4 W | 278 0.0 1.1 WNW | 288
5/4/26 - 0130 35.6 36 11.5 28.4 SW | 234 0.6 2.4 W | 270
5/4/26 - 0125 35.8 36 11.2 28.4 WSW | 246 1.1 2.4 SSW | 202
5/4/26 - 0120 36.0 36 11.6 28.6 WSW | 237 0.8 2.9 SW | 232
5/4/26 - 0115 36.0 36 11.5 28.6 SW | 229 0.9 3.0 SW | 226
5/4/26 - 0110 36.0 36 11.8 28.7 WSW | 256 0.7 4.9 WNW | 282
5/4/26 - 0105 36.1 36 11.9 28.8 W | 270 0.7 3.4 W | 269
5/4/26 - 0100 36.2 36 12.1 28.9 W | 269 0.3 1.4 SW | 223
5/4/26 - 0055 35.9 37 12.3 28.7 W | 268 0.1 2.0 W | 262
5/4/26 - 0050 35.8 36 11.6 28.5 W | 259 0.1 1.0 WSW | 257
5/4/26 - 0045 35.8 35 11.0 28.4 W | 279 0.7 2.5 W | 278
5/4/26 - 0040 35.6 35 10.7 28.2 W | 275 0.8 3.1 WNW | 286
5/4/26 - 0035 35.6 35 10.6 28.2 W | 268 1.1 2.8 WSW | 247
5/4/26 - 0030 35.5 36 11.2 28.3 WSW | 258 0.4 2.9 WNW | 284
5/4/26 - 0025 35.8 36 11.3 28.4 W | 266 0.6 2.9 WNW | 283
5/4/26 - 0020 35.6 36 11.0 28.3 W | 263 0.6 1.9 WNW | 283
5/4/26 - 0015 35.2 36 10.7 27.9 WNW | 284 0.9 2.4 W | 279
5/4/26 - 0010 35.1 35 10.1 27.8 WNW | 294 1.8 3.4 W | 281
5/4/26 - 0005 36.4 36 12.0 28.9 WNW | 282 0.8 3.7 WNW | 294
5/4/26 - 0000 36.8 35 11.8 29.2 WSW | 255 0.9 2.8 W | 264
5/3/26 - 2355 36.9 37 12.9 29.5 WSW | 244 1.8 3.4 WSW | 253
5/3/26 - 2350 36.0 35 11.3 28.6 W | 260 0.6 2.5 WSW | 239
5/3/26 - 2345 36.3 35 11.6 28.8 WSW | 254 0.9 3.7 WNW | 302
5/3/26 - 2340 35.8 35 10.7 28.3 WSW | 255 0.4 2.1 SW | 225
5/3/26 - 2335 35.4 36 10.8 28.1 W | 259 0.5 2.2 WNW | 286
5/3/26 - 2330 34.9 35 10.1 27.7 W | 262 1.0 3.0 WSW | 252
5/3/26 - 2325 34.7 35 9.9 27.5 WSW | 257 0.5 1.8 W | 260
5/3/26 - 2320 34.1 35 9.3 27.0 WSW | 254 0.8 2.5 WSW | 255
5/3/26 - 2315 34.4 34 8.8 27.1 WSW | 258 1.0 2.5 W | 260
5/3/26 - 2310 34.5 34 8.9 27.2 SW | 217 0.9 2.8 S | 190
5/3/26 - 2305 34.5 34 9.3 27.2 W | 278 1.2 3.2 W | 277
5/3/26 - 2300 34.5 34 9.2 27.2 WNW | 284 1.4 3.2 WNW | 288
5/3/26 - 2255 35.8 34 10.4 28.2 WSW | 256 0.0 0.8 W | 274
5/3/26 - 2250 35.8 34 9.8 28.2 W | 262 - - WSW | 252
5/3/26 - 2245 35.2 33 9.1 27.7 WNW | 296 1.2 3.8 NW | 310
5/3/26 - 2240 37.3 32 10.4 29.2 SW | 225 1.2 3.6 SW | 227
5/3/26 - 2235 36.8 32 10.0 28.8 SW | 224 1.5 3.9 SW | 231
5/3/26 - 2230 36.7 33 10.2 28.8 SW | 220 0.8 2.9 SW | 222
5/3/26 - 2225 36.9 34 10.9 29.1 SSW | 210 1.3 4.1 SSW | 196
5/3/26 - 2220 37.0 33 10.7 29.1 SW | 218 1.2 6.3 SSW | 211
5/3/26 - 2215 36.9 34 10.9 29.1 WSW | 247 0.4 3.4 SW | 225
5/3/26 - 2210 37.4 33 10.8 29.4 WSW | 254 1.8 6.6 SSW | 211
5/3/26 - 2205 37.5 33 11.2 29.5 SW | 229 1.4 5.5 SW | 234
5/3/26 - 2200 37.9 34 11.7 29.8 WSW | 248 1.6 5.4 WSW | 246
5/3/26 - 2155 37.8 34 11.7 29.7 W | 272 1.8 6.4 WSW | 248
5/3/26 - 2150 37.2 34 11.6 29.4 SW | 234 0.6 3.6 WSW | 243
5/3/26 - 2145 37.0 34 11.4 29.2 WNW | 289 1.7 5.2 WSW | 248
5/3/26 - 2140 36.9 34 11.3 29.2 NW | 319 4.0 11.4 NNW | 327
5/3/26 - 2135 36.7 34 11.2 29.0 NW | 317 1.5 4.8 NNW | 334
5/3/26 - 2130 36.5 34 10.6 28.7 NW | 312 0.4 3.1 NW | 324
5/3/26 - 2125 36.2 34 10.3 28.5 W | 262 0.9 4.6 WSW | 254
5/3/26 - 2120 36.2 34 10.5 28.6 W | 270 - - WNW | 300
5/3/26 - 2115 36.4 33 10.3 28.6 WSW | 241 0.2 2.9 WSW | 256
5/3/26 - 2110 36.6 33 10.3 28.8 WNW | 293 0.4 3.0 W | 281
5/3/26 - 2105 37.0 34 11.2 29.2 W | 277 0.2 3.7 WSW | 239
5/3/26 - 2100 37.3 33 11.1 29.3 W | 279 2.0 6.8 W | 279
5/3/26 - 2055 38.4 34 12.3 30.2 NW | 311 3.5 10.5 NNW | 345
5/3/26 - 2050 39.5 34 13.7 31.2 WNW | 283 0.7 2.1 WNW | 282
5/3/26 - 2045 39.9 33 13.4 31.4 S | 186 1.8 6.3 SW | 215
5/3/26 - 2040 39.5 33 12.7 31.0 S | 190 3.4 10.1 S | 188
5/3/26 - 2035 39.2 33 12.5 30.8 SW | 216 4.5 11.6 W | 261
5/3/26 - 2030 39.5 33 12.6 31.0 S | 185 5.2 13.1 SSW | 198
5/3/26 - 2025 40.1 33 13.5 31.5 SSW | 206 3.0 10.3 S | 172
5/3/26 - 2020 40.2 33 13.6 31.6 SW | 220 2.0 6.7 SW | 223
5/3/26 - 2015 40.2 33 13.2 31.5 SSW | 197 4.3 11.3 SW | 229
5/3/26 - 2010 40.3 33 13.4 31.6 SSW | 193 3.5 11.6 S | 188
5/3/26 - 2005 40.0 33 13.2 31.4 SSE | 167 2.3 6.3 SSE | 165
Max 42.2 40 18.8 33.9 - 7.5 23.9 -
Avg 37.1 36 12.6 29.5 - 2.0 6.3 -
Min 33.3 32 8.8 26.6 - 0.0 0.0 -